createdAt,value
2023-10-31T00:01:07.182Z,96097.59
2023-10-31T00:03:34.245Z,96098.81
2023-10-31T00:06:01.238Z,96096.94
2023-10-31T00:08:28.204Z,96103.03
2023-10-31T00:10:55.342Z,96103.88
2023-10-31T00:13:22.314Z,96110.06
2023-10-31T00:15:49.300Z,96107.03
2023-10-31T00:18:16.274Z,96107.03
2023-10-31T00:20:43.239Z,96112.91
2023-10-31T00:23:10.236Z,96113.59
2023-10-31T00:25:37.264Z,96111.41
2023-10-31T00:28:04.241Z,96111.28
2023-10-31T00:30:31.215Z,96109.00
2023-10-31T00:32:58.199Z,96115.88
2023-10-31T00:35:25.217Z,96122.59
2023-10-31T00:37:54.658Z,96127.22
2023-10-31T00:40:21.673Z,96129.19
2023-10-31T00:42:48.637Z,96123.50
2023-10-31T00:45:15.593Z,96127.84
2023-10-31T00:47:42.554Z,96126.50
2023-10-31T00:50:09.595Z,96117.78
2023-10-31T00:52:37.998Z,96125.06
2023-10-31T00:55:04.945Z,96121.72
2023-10-31T00:57:31.922Z,96124.59
2023-10-31T00:59:58.990Z,96123.25
2023-10-31T01:02:25.926Z,96128.66
2023-10-31T01:04:52.883Z,96126.63
2023-10-31T01:07:19.858Z,96132.63
2023-10-31T01:09:46.798Z,96134.56
2023-10-31T01:12:13.726Z,96134.75
2023-10-31T01:14:40.716Z,96133.47
2023-10-31T01:17:07.686Z,96130.91
2023-10-31T01:19:34.745Z,96138.22
2023-10-31T01:22:01.754Z,96144.22
2023-10-31T01:24:28.699Z,96148.78
2023-10-31T01:26:55.685Z,96149.59
2023-10-31T01:29:22.638Z,96147.19
2023-10-31T01:31:59.088Z,96150.09
2023-10-31T01:34:28.101Z,96161.09
2023-10-31T01:36:55.066Z,96167.53
2023-10-31T01:39:22.052Z,96169.16
2023-10-31T01:41:49.038Z,96166.91
2023-10-31T01:44:16.004Z,96170.19
2023-10-31T01:46:43.058Z,96175.06
2023-10-31T01:49:10.107Z,96173.72
2023-10-31T01:51:37.038Z,96168.97
2023-10-31T01:54:03.996Z,96168.97
2023-10-31T01:56:30.942Z,96173.88
2023-10-31T01:58:58.033Z,96173.31
2023-10-31T02:01:25.006Z,96178.47
2023-10-31T02:03:52.005Z,96172.56
2023-10-31T02:06:19.069Z,96175.22
2023-10-31T02:08:45.997Z,96183.03
2023-10-31T02:11:13.016Z,96181.16
2023-10-31T02:13:40.040Z,96185.97
2023-10-31T02:16:07.003Z,96186.75
2023-10-31T02:18:33.989Z,96188.81
2023-10-31T02:21:01.021Z,96190.66
2023-10-31T02:23:27.965Z,96198.50
2023-10-31T02:25:55.008Z,96200.41
2023-10-31T02:28:21.971Z,96200.28
2023-10-31T02:30:48.920Z,96202.47
2023-10-31T02:33:15.932Z,96203.69
2023-10-31T02:35:42.928Z,96200.88
2023-10-31T02:38:09.905Z,96201.56
2023-10-31T02:40:37.024Z,96206.28
2023-10-31T02:43:04.013Z,96207.13
2023-10-31T02:45:30.979Z,96204.94
2023-10-31T02:47:57.980Z,96197.84
2023-10-31T02:50:25.014Z,96194.16
2023-10-31T02:52:51.975Z,96188.81
2023-10-31T02:55:19.049Z,96180.03
2023-10-31T02:57:45.996Z,96188.78
2023-10-31T03:00:12.972Z,96185.53
2023-10-31T03:02:39.988Z,96184.47
2023-10-31T03:05:07.121Z,96190.38
2023-10-31T03:07:34.075Z,96180.94
2023-10-31T03:10:01.031Z,96183.41
2023-10-31T03:12:28.027Z,96182.59
2023-10-31T03:14:54.950Z,96185.16
2023-10-31T03:17:21.976Z,96171.75
2023-10-31T03:19:48.976Z,96165.56
2023-10-31T03:22:15.924Z,96168.56
2023-10-31T03:24:42.867Z,96168.03
2023-10-31T03:27:09.828Z,96164.31
2023-10-31T03:29:36.748Z,96160.88
2023-10-31T03:32:03.715Z,96164.72
2023-10-31T03:34:30.738Z,96158.81
2023-10-31T03:36:57.704Z,96155.75
2023-10-31T03:39:24.670Z,96153.03
2023-10-31T03:41:51.607Z,96157.25
2023-10-31T03:44:18.602Z,96156.88
2023-10-31T03:46:45.608Z,96152.84
2023-10-31T03:49:13.153Z,96153.88
2023-10-31T03:51:40.115Z,96153.28
2023-10-31T03:54:07.072Z,96145.50
2023-10-31T03:56:34.035Z,96144.81
2023-10-31T03:59:01.040Z,96151.19
2023-10-31T04:01:28.057Z,96151.50
2023-10-31T04:03:55.030Z,96149.75
2023-10-31T04:06:22.013Z,96151.06
2023-10-31T04:08:48.952Z,96155.41
2023-10-31T04:11:15.932Z,96167.84
2023-10-31T04:13:42.863Z,96169.91
2023-10-31T04:16:09.894Z,96169.09
2023-10-31T04:18:36.859Z,96168.00
2023-10-31T04:21:03.809Z,96173.56
2023-10-31T04:23:30.747Z,96184.88
2023-10-31T04:25:57.747Z,96180.75
2023-10-31T04:28:24.647Z,96187.16
2023-10-31T04:30:51.605Z,96199.72
2023-10-31T04:33:18.591Z,96191.72
2023-10-31T04:35:45.577Z,96202.25
2023-10-31T04:38:12.617Z,96212.25
2023-10-31T04:40:39.652Z,96210.56
2023-10-31T04:43:06.601Z,96209.22
2023-10-31T04:45:33.716Z,96209.31
2023-10-31T04:48:00.928Z,96218.47
2023-10-31T04:50:27.982Z,96223.94
2023-10-31T04:52:54.920Z,96229.59
2023-10-31T04:55:21.869Z,96223.47
2023-10-31T04:57:48.794Z,96236.88
2023-10-31T05:00:15.668Z,96226.81
2023-10-31T05:02:42.727Z,96242.44
2023-10-31T05:05:09.887Z,96237.84
2023-10-31T05:07:36.956Z,96240.88
2023-10-31T05:10:03.948Z,96238.06
2023-10-31T05:12:30.894Z,96236.06
2023-10-31T05:14:57.817Z,96246.44
2023-10-31T05:17:24.824Z,96252.69
2023-10-31T05:19:51.860Z,96256.19
2023-10-31T05:22:19.007Z,96249.38
2023-10-31T05:24:46.086Z,96239.75
2023-10-31T05:27:13.067Z,96254.09
2023-10-31T05:29:39.955Z,96250.41
2023-10-31T05:32:07.114Z,96247.28
2023-10-31T05:34:34.075Z,96240.34
2023-10-31T05:37:01.024Z,96234.84
2023-10-31T05:39:27.927Z,96238.34
2023-10-31T05:41:54.874Z,96243.59
2023-10-31T05:44:21.804Z,96240.91
2023-10-31T05:46:48.818Z,96245.00
2023-10-31T05:49:15.875Z,96245.25
2023-10-31T05:51:42.934Z,96251.66
2023-10-31T05:54:09.863Z,96239.06
2023-10-31T05:56:36.773Z,96237.72
2023-10-31T05:59:03.816Z,96241.53
2023-10-31T06:01:30.740Z,96249.47
2023-10-31T06:03:57.720Z,96236.13
2023-10-31T06:06:24.648Z,96244.13
2023-10-31T06:08:51.621Z,96243.56
2023-10-31T06:11:18.663Z,96241.63
2023-10-31T06:13:45.644Z,96246.69
2023-10-31T06:16:12.824Z,96243.22
2023-10-31T06:18:39.815Z,96246.44
2023-10-31T06:21:06.774Z,96260.25
2023-10-31T06:23:33.754Z,96270.09
2023-10-31T06:26:00.757Z,96267.47
2023-10-31T06:28:27.768Z,96271.72
2023-10-31T06:30:54.787Z,96280.97
2023-10-31T06:33:21.748Z,96284.06
2023-10-31T06:35:48.767Z,96286.91
2023-10-31T06:38:15.791Z,96291.59
2023-10-31T06:40:42.901Z,96298.34
2023-10-31T06:43:09.962Z,96295.53
2023-10-31T06:45:36.988Z,96300.84
2023-10-31T06:48:03.994Z,96311.34
2023-10-31T06:50:31.066Z,96317.31
2023-10-31T06:52:58.104Z,96320.44
2023-10-31T06:55:25.116Z,96320.50
2023-10-31T06:57:52.101Z,96327.16
2023-10-31T07:00:19.234Z,96336.09
2023-10-31T07:02:46.289Z,96335.81
2023-10-31T07:05:13.218Z,96334.50
2023-10-31T07:07:40.183Z,96344.06
2023-10-31T07:10:07.208Z,96349.69
2023-10-31T07:12:34.160Z,96343.31
2023-10-31T07:15:01.156Z,96347.13
2023-10-31T07:17:28.302Z,96347.06
2023-10-31T07:19:55.397Z,96348.59
2023-10-31T07:22:22.407Z,96356.28
2023-10-31T07:24:49.359Z,96355.03
2023-10-31T07:27:16.318Z,96355.44
2023-10-31T07:29:43.302Z,96352.44
2023-10-31T07:32:11.251Z,96357.44
2023-10-31T07:34:38.626Z,96354.63
2023-10-31T07:37:05.585Z,96368.09
2023-10-31T07:39:32.560Z,96371.84
2023-10-31T07:41:59.487Z,96374.22
2023-10-31T07:44:26.515Z,96368.75
2023-10-31T07:46:53.581Z,96379.28
2023-10-31T07:49:20.590Z,96379.56
2023-10-31T07:51:47.560Z,96380.13
2023-10-31T07:54:14.529Z,96374.53
2023-10-31T07:56:41.530Z,96383.56
2023-10-31T07:59:08.587Z,96376.91
2023-10-31T08:01:35.573Z,96379.44
2023-10-31T08:04:02.730Z,96391.66
2023-10-31T08:06:29.883Z,96382.06
2023-10-31T08:08:56.854Z,96387.78
2023-10-31T08:11:23.875Z,96395.72
2023-10-31T08:13:50.848Z,96396.09
2023-10-31T08:16:17.894Z,96382.97
2023-10-31T08:18:44.889Z,96395.91
2023-10-31T08:21:11.848Z,96395.63
2023-10-31T08:23:38.998Z,96388.84
2023-10-31T08:26:06.069Z,96392.97
2023-10-31T08:28:33.109Z,96389.94
2023-10-31T08:31:00.218Z,96394.91
2023-10-31T08:33:27.166Z,96398.53
2023-10-31T08:35:54.230Z,96406.72
2023-10-31T08:38:27.236Z,96408.91
2023-10-31T08:40:58.906Z,96412.53
2023-10-31T08:43:26.012Z,96412.97
2023-10-31T08:45:52.912Z,96421.41
2023-10-31T08:48:19.924Z,96430.84
2023-10-31T08:50:47.010Z,96429.97
2023-10-31T08:53:14.073Z,96431.06
2023-10-31T08:55:41.132Z,96438.50
2023-10-31T08:58:08.084Z,96437.75
2023-10-31T09:00:34.992Z,96431.88
2023-10-31T09:03:02.040Z,96430.19
2023-10-31T09:05:29.197Z,96425.94
2023-10-31T09:07:58.110Z,96429.94
2023-10-31T09:10:25.181Z,96428.22
2023-10-31T09:12:52.178Z,96425.56
2023-10-31T09:15:19.151Z,96432.34
2023-10-31T09:17:47.438Z,96428.53
2023-10-31T09:20:15.651Z,96437.16
2023-10-31T09:22:42.602Z,96430.22
2023-10-31T09:25:09.640Z,96435.78
2023-10-31T09:27:36.584Z,96438.97
2023-10-31T09:30:03.537Z,96442.03
2023-10-31T09:32:30.582Z,96449.88
2023-10-31T09:34:57.668Z,96446.88
2023-10-31T09:37:24.669Z,96455.78
2023-10-31T09:39:51.770Z,96460.53
2023-10-31T09:42:18.826Z,96459.66
2023-10-31T09:44:45.932Z,96480.56
2023-10-31T09:47:13.092Z,96470.38
2023-10-31T09:49:40.142Z,96469.22
2023-10-31T09:52:07.164Z,96469.63
2023-10-31T09:54:34.225Z,96471.38
2023-10-31T09:57:01.291Z,96471.06
2023-10-31T09:59:28.275Z,96464.41
2023-10-31T10:01:55.386Z,96469.56
2023-10-31T10:04:22.707Z,96467.53
2023-10-31T10:06:50.012Z,96474.09
2023-10-31T10:09:17.003Z,96472.53
2023-10-31T10:11:44.034Z,96481.53
2023-10-31T10:14:11.131Z,96483.81
2023-10-31T10:16:38.180Z,96464.91
2023-10-31T10:19:05.210Z,96479.41
2023-10-31T10:21:32.260Z,96480.00
2023-10-31T10:23:59.309Z,96473.88
2023-10-31T10:26:26.371Z,96475.09
2023-10-31T10:28:55.742Z,96478.13
2023-10-31T10:31:23.088Z,96480.84
2023-10-31T10:33:50.049Z,96486.28
2023-10-31T10:36:17.107Z,96486.38
2023-10-31T10:38:44.101Z,96486.72
2023-10-31T10:41:11.082Z,96492.13
2023-10-31T10:43:38.113Z,96487.88
2023-10-31T10:46:05.195Z,96490.50
2023-10-31T10:48:32.390Z,96494.94
2023-10-31T10:50:59.415Z,96502.09
2023-10-31T10:53:26.516Z,96505.63
2023-10-31T10:55:53.669Z,96494.38
2023-10-31T10:58:20.812Z,96497.69
2023-10-31T11:00:47.792Z,96497.50
2023-10-31T11:03:14.832Z,96504.59
2023-10-31T11:05:41.862Z,96500.69
2023-10-31T11:08:08.980Z,96500.47
2023-10-31T11:10:36.053Z,96509.13
2023-10-31T11:13:03.068Z,96508.38
2023-10-31T11:15:30.098Z,96509.84
2023-10-31T11:17:57.166Z,96510.41
2023-10-31T11:20:24.191Z,96512.41
2023-10-31T11:22:51.209Z,96520.56
2023-10-31T11:25:25.677Z,96516.56
2023-10-31T11:27:56.821Z,96514.16
2023-10-31T11:30:23.844Z,96511.09
2023-10-31T11:32:50.853Z,96514.78
2023-10-31T11:35:17.908Z,96509.34
2023-10-31T11:37:44.867Z,96517.22
2023-10-31T11:40:11.868Z,96513.78
2023-10-31T11:42:38.887Z,96518.16
2023-10-31T11:45:05.867Z,96524.72
2023-10-31T11:47:32.886Z,96525.59
2023-10-31T11:49:59.963Z,96525.94
2023-10-31T11:52:27.057Z,96538.50
2023-10-31T11:54:54.086Z,96540.13
2023-10-31T11:57:22.799Z,96537.97
2023-10-31T11:59:49.858Z,96536.81
2023-10-31T12:02:16.899Z,96538.13
2023-10-31T12:04:43.993Z,96547.13
2023-10-31T12:07:11.049Z,96545.75
2023-10-31T12:09:38.055Z,96548.69
2023-10-31T12:12:05.021Z,96550.56
2023-10-31T12:14:32.055Z,96564.19
2023-10-31T12:16:59.115Z,96560.91
2023-10-31T12:19:26.096Z,96567.59
2023-10-31T12:21:53.136Z,96556.47
2023-10-31T12:24:20.227Z,96570.78
2023-10-31T12:26:47.503Z,96564.94
2023-10-31T12:29:14.817Z,96564.84
2023-10-31T12:31:41.836Z,96566.66
2023-10-31T12:34:08.922Z,96575.25
2023-10-31T12:36:35.908Z,96559.09
2023-10-31T12:39:02.904Z,96560.88
2023-10-31T12:41:30.060Z,96558.50
2023-10-31T12:43:57.168Z,96578.72
2023-10-31T12:46:24.154Z,96575.47
2023-10-31T12:48:51.122Z,96578.34
2023-10-31T12:51:18.166Z,96591.06
2023-10-31T12:53:45.156Z,96594.06
2023-10-31T12:56:12.273Z,96591.78
2023-10-31T12:58:39.348Z,96597.00
2023-10-31T13:01:06.341Z,96623.13
2023-10-31T13:03:33.550Z,96617.06
2023-10-31T13:06:00.768Z,96622.59
2023-10-31T13:08:27.694Z,96621.59
2023-10-31T13:10:54.715Z,96608.41
2023-10-31T13:13:21.729Z,96617.13
2023-10-31T13:15:48.875Z,96617.22
2023-10-31T13:18:15.939Z,96620.44
2023-10-31T13:20:42.996Z,96623.97
2023-10-31T13:23:10.008Z,96619.50
2023-10-31T13:25:37.025Z,96626.66
2023-10-31T13:28:04.094Z,96629.50
2023-10-31T13:30:31.067Z,96644.34
2023-10-31T13:32:58.083Z,96645.91
2023-10-31T13:35:25.291Z,96661.56
2023-10-31T13:37:52.466Z,96664.25
2023-10-31T13:40:19.435Z,96680.81
2023-10-31T13:42:46.412Z,96678.72
2023-10-31T13:45:13.408Z,96687.59
2023-10-31T13:47:40.449Z,96697.06
2023-10-31T13:50:07.508Z,96700.25
2023-10-31T13:52:34.489Z,96698.78
2023-10-31T13:55:01.528Z,96702.75
2023-10-31T13:57:28.512Z,96699.03
2023-10-31T13:59:55.480Z,96700.56
2023-10-31T14:02:22.677Z,96708.81
2023-10-31T14:04:50.118Z,96701.91
2023-10-31T14:07:17.271Z,96700.44
2023-10-31T14:09:44.275Z,96715.53
2023-10-31T14:12:11.314Z,96708.19
2023-10-31T14:14:38.248Z,96706.94
2023-10-31T14:17:05.264Z,96719.66
2023-10-31T14:19:32.258Z,96714.41
2023-10-31T14:21:59.219Z,96715.13
2023-10-31T14:24:26.311Z,96715.50
2023-10-31T14:26:53.427Z,96741.06
2023-10-31T14:29:20.375Z,96728.66
2023-10-31T14:31:47.354Z,96740.56
2023-10-31T14:34:14.348Z,96739.63
2023-10-31T14:36:41.310Z,96746.09
2023-10-31T14:39:08.283Z,96757.72
2023-10-31T14:41:35.755Z,96760.75
2023-10-31T14:44:03.011Z,96761.31
2023-10-31T14:46:30.296Z,96765.56
2023-10-31T14:48:57.464Z,96771.53
2023-10-31T14:51:24.534Z,96773.34
2023-10-31T14:53:51.529Z,96777.97
2023-10-31T14:56:18.651Z,96776.16
2023-10-31T14:58:45.692Z,96786.94
2023-10-31T15:01:12.816Z,96790.72
2023-10-31T15:03:39.947Z,96777.13
2023-10-31T15:06:07.546Z,96774.59
2023-10-31T15:08:34.646Z,96785.13
2023-10-31T15:11:01.774Z,96779.38
2023-10-31T15:13:28.929Z,96796.41
2023-10-31T15:15:56.093Z,96794.72
2023-10-31T15:18:23.241Z,96801.13
2023-10-31T15:20:52.851Z,96792.09
2023-10-31T15:23:19.908Z,96804.03
2023-10-31T15:25:46.952Z,96825.00
2023-10-31T15:28:13.900Z,96821.81
2023-10-31T15:30:40.936Z,96828.00
2023-10-31T15:33:07.996Z,96841.09
2023-10-31T15:35:35.004Z,96835.94
2023-10-31T15:38:02.064Z,96842.19
2023-10-31T15:40:29.090Z,96841.41
2023-10-31T15:42:56.126Z,96844.31
2023-10-31T15:45:23.182Z,96846.09
2023-10-31T15:47:50.303Z,96842.44
2023-10-31T15:50:17.374Z,96849.59
2023-10-31T15:52:44.474Z,96846.56
2023-10-31T15:55:14.533Z,96844.19
2023-10-31T15:57:41.594Z,96842.63
2023-10-31T16:00:08.617Z,96847.44
2023-10-31T16:02:35.649Z,96852.09
2023-10-31T16:05:03.143Z,96855.78
2023-10-31T16:07:30.233Z,96865.34
2023-10-31T16:09:57.362Z,96867.06
2023-10-31T16:12:24.330Z,96864.28
2023-10-31T16:14:51.262Z,96879.31
2023-10-31T16:17:18.278Z,96883.88
2023-10-31T16:19:45.352Z,96884.41
2023-10-31T16:22:12.323Z,96888.91
2023-10-31T16:24:39.326Z,96880.53
2023-10-31T16:27:06.372Z,96889.69
2023-10-31T16:29:35.336Z,96890.47
2023-10-31T16:32:05.438Z,96888.50
2023-10-31T16:34:32.543Z,96896.84
2023-10-31T16:36:59.556Z,96901.91
2023-10-31T16:39:27.649Z,96889.53
2023-10-31T16:41:54.561Z,96888.34
2023-10-31T16:44:21.609Z,96899.22
2023-10-31T16:46:48.559Z,96883.44
2023-10-31T16:49:15.518Z,96897.03
2023-10-31T16:51:42.502Z,96905.72
2023-10-31T16:54:09.578Z,96908.16
2023-10-31T16:56:36.583Z,96906.59
2023-10-31T16:59:04.782Z,96929.97
2023-10-31T17:01:31.961Z,96928.34
2023-10-31T17:03:58.981Z,96933.47
2023-10-31T17:06:26.057Z,96932.09
2023-10-31T17:08:53.082Z,96930.88
2023-10-31T17:11:21.364Z,96935.16
2023-10-31T17:13:48.521Z,96941.72
2023-10-31T17:16:15.759Z,96944.13
2023-10-31T17:18:42.763Z,96954.13
2023-10-31T17:21:09.824Z,96955.44
2023-10-31T17:23:38.427Z,96957.94
2023-10-31T17:26:06.604Z,96960.91
2023-10-31T17:28:33.764Z,96951.25
2023-10-31T17:31:00.763Z,96959.22
2023-10-31T17:33:27.907Z,96954.19
2023-10-31T17:35:55.910Z,96958.19
2023-10-31T17:38:22.900Z,96960.72
2023-10-31T17:40:50.223Z,96964.94
2023-10-31T17:43:17.759Z,96967.00
2023-10-31T17:45:44.897Z,96971.00
2023-10-31T17:48:11.948Z,96970.84
2023-10-31T17:50:39.061Z,96982.97
2023-10-31T17:53:06.078Z,96982.50
2023-10-31T17:55:33.185Z,96985.50
2023-10-31T17:58:00.122Z,96991.34
2023-10-31T18:00:27.153Z,96997.06
2023-10-31T18:02:54.629Z,97003.25
2023-10-31T18:05:21.732Z,96998.59
2023-10-31T18:07:48.984Z,97000.97
2023-10-31T18:10:16.018Z,97002.91
2023-10-31T18:12:43.001Z,96999.59
2023-10-31T18:15:09.924Z,97002.44
2023-10-31T18:17:37.267Z,97000.06
2023-10-31T18:20:04.338Z,97003.66
2023-10-31T18:22:31.363Z,97005.88
2023-10-31T18:24:58.322Z,97002.91
2023-10-31T18:27:25.303Z,97011.06
2023-10-31T18:29:52.368Z,97012.72
2023-10-31T18:32:19.433Z,97009.50
2023-10-31T18:34:47.085Z,97009.03
2023-10-31T18:37:14.445Z,97012.19
2023-10-31T18:39:41.723Z,97010.50
2023-10-31T18:42:09.895Z,97005.78
2023-10-31T18:44:45.814Z,97004.00
2023-10-31T18:47:16.894Z,96994.94
2023-10-31T18:49:44.323Z,96995.31
2023-10-31T18:52:11.266Z,96997.97
2023-10-31T18:54:39.146Z,96993.25
2023-10-31T18:57:06.159Z,96995.50
2023-10-31T18:59:35.242Z,96998.34
2023-10-31T19:02:02.773Z,97003.09
2023-10-31T19:04:30.028Z,96990.03
2023-10-31T19:06:57.177Z,96985.53
2023-10-31T19:09:24.449Z,96979.09
2023-10-31T19:11:51.220Z,96982.41
2023-10-31T19:14:18.143Z,96971.09
2023-10-31T19:16:44.942Z,96972.19
2023-10-31T19:19:12.035Z,96977.09
2023-10-31T19:21:40.092Z,96968.66
2023-10-31T19:24:06.881Z,96974.34
2023-10-31T19:26:33.816Z,96964.28
2023-10-31T19:29:00.701Z,96974.03
2023-10-31T19:31:27.534Z,96970.44
2023-10-31T19:33:54.405Z,96968.56
2023-10-31T19:36:21.151Z,96966.81
2023-10-31T19:38:49.622Z,96969.16
2023-10-31T19:41:17.194Z,96969.81
2023-10-31T19:43:44.107Z,96971.59
2023-10-31T19:46:10.983Z,96963.63
2023-10-31T19:48:37.824Z,96970.53
2023-10-31T19:51:04.546Z,96968.91
2023-10-31T19:53:31.301Z,96975.34
2023-10-31T19:55:58.296Z,96975.59
2023-10-31T19:58:25.179Z,96981.38
2023-10-31T20:00:51.985Z,96980.88
2023-10-31T20:03:19.000Z,96980.97
2023-10-31T20:05:46.074Z,96983.06
2023-10-31T20:08:13.104Z,96980.38
2023-10-31T20:10:40.345Z,96981.69
2023-10-31T20:13:07.205Z,96984.72
2023-10-31T20:15:33.971Z,96978.56
2023-10-31T20:18:00.828Z,96977.53
2023-10-31T20:20:27.727Z,96976.13
2023-10-31T20:22:54.578Z,96968.75
2023-10-31T20:25:21.384Z,96970.00
2023-10-31T20:27:48.210Z,96971.81
2023-10-31T20:30:15.171Z,96969.69
2023-10-31T20:32:41.934Z,96972.06
2023-10-31T20:35:08.875Z,96977.66
2023-10-31T20:37:35.608Z,96974.47
2023-10-31T20:40:02.369Z,96977.31
2023-10-31T20:42:29.119Z,96970.63
2023-10-31T20:44:55.889Z,96966.91
2023-10-31T20:47:22.673Z,96974.84
2023-10-31T20:49:49.449Z,96971.75
2023-10-31T20:52:16.209Z,96977.94
2023-10-31T20:54:45.294Z,96977.69
2023-10-31T20:57:12.329Z,96973.69
2023-10-31T20:59:39.138Z,96965.44
2023-10-31T21:02:05.958Z,96961.47
2023-10-31T21:04:32.744Z,96955.50
2023-10-31T21:06:59.551Z,96958.84
2023-10-31T21:09:26.318Z,96954.41
2023-10-31T21:11:53.369Z,96947.44
2023-10-31T21:14:20.347Z,96955.75
2023-10-31T21:16:47.316Z,96948.75
2023-10-31T21:19:16.822Z,96946.41
2023-10-31T21:21:48.346Z,96936.41
2023-10-31T21:24:15.326Z,96936.50
2023-10-31T21:26:42.294Z,96934.53
2023-10-31T21:29:09.271Z,96931.38
2023-10-31T21:31:36.241Z,96932.38
2023-10-31T21:34:03.228Z,96928.25
2023-10-31T21:36:30.224Z,96923.97
2023-10-31T21:38:57.080Z,96919.34
2023-10-31T21:41:24.035Z,96910.00
2023-10-31T21:43:51.023Z,96914.88
2023-10-31T21:46:20.428Z,96911.13
2023-10-31T21:48:47.440Z,96904.28
2023-10-31T21:51:14.421Z,96906.19
2023-10-31T21:53:41.428Z,96906.66
2023-10-31T21:56:08.454Z,96905.25
2023-10-31T21:58:35.496Z,96896.72
2023-10-31T22:01:02.460Z,96902.78
2023-10-31T22:03:29.544Z,96911.38
2023-10-31T22:05:57.120Z,96916.19
2023-10-31T22:08:24.140Z,96915.19
2023-10-31T22:10:51.142Z,96911.34
2023-10-31T22:13:18.097Z,96918.94
2023-10-31T22:15:45.063Z,96916.59
2023-10-31T22:18:12.054Z,96914.47
2023-10-31T22:20:39.038Z,96910.75
2023-10-31T22:23:05.979Z,96901.56
2023-10-31T22:25:32.984Z,96898.88
2023-10-31T22:27:59.913Z,96902.25
2023-10-31T22:30:26.994Z,96904.31
2023-10-31T22:32:53.966Z,96905.38
2023-10-31T22:35:21.014Z,96906.47
2023-10-31T22:37:48.048Z,96905.38
2023-10-31T22:40:15.437Z,96903.84
2023-10-31T22:42:43.414Z,96901.56
2023-10-31T22:45:10.384Z,96893.44
2023-10-31T22:47:37.381Z,96894.97
2023-10-31T22:50:04.418Z,96895.25
2023-10-31T22:52:31.477Z,96898.88
2023-10-31T22:54:58.618Z,96897.16
2023-10-31T22:57:25.594Z,96894.53
2023-10-31T22:59:52.544Z,96890.75
2023-10-31T23:02:19.500Z,96880.09
2023-10-31T23:04:46.448Z,96880.09
2023-10-31T23:07:13.493Z,96880.00
2023-10-31T23:09:40.397Z,96871.16
2023-10-31T23:12:07.376Z,96878.84
2023-10-31T23:14:34.305Z,96878.59
2023-10-31T23:17:01.209Z,96880.47
2023-10-31T23:19:28.133Z,96883.19
2023-10-31T23:21:55.120Z,96882.28
2023-10-31T23:24:22.014Z,96881.09
2023-10-31T23:26:49.012Z,96882.03
2023-10-31T23:29:15.930Z,96880.88
2023-10-31T23:31:45.054Z,96884.03
2023-10-31T23:34:12.077Z,96871.88
2023-10-31T23:36:39.056Z,96877.63
2023-10-31T23:39:05.997Z,96875.03
2023-10-31T23:41:32.961Z,96883.22
2023-10-31T23:43:59.997Z,96882.00
2023-10-31T23:46:26.940Z,96879.72
2023-10-31T23:48:53.928Z,96875.22
2023-10-31T23:51:22.945Z,96879.06
2023-10-31T23:53:51.463Z,96884.19
2023-10-31T23:56:19.039Z,96880.94
2023-10-31T23:58:46.302Z,96887.66
